Adamsville, TN

3:03 PM CDT on September 17, 2014 (GMT -0500)
City | Change Station
CLOSE
Current Station
Personal Weather Station
Location: Corinth, MS
Elevation: 435 ft
Nearby Weather Stations

Elev 435 ft 34.95 °N, 88.50 °W | Updated 4 minutes ago

Partly Cloudy
Partly Cloudy
75.6 °F
Feels Like 77 °F
N
1.0
Wind Variable Wind from NNW
Gusts 9.0 mph

Today
High -- | Low -- °F
--% Chance of Precip.
Yesterday
High -- | Low -- °F
Precip. -- in
6:37 AM 6:57 PM
Waning Crescent, 33% visible
Pressure 29.98 in
Visibility 10.0 miles
Clouds Few 3200 ft
Mostly Cloudy 3800 ft
Heat Index 77 °F
Dew Point 64 °F
Humidity 67%
Rainfall 0.00 in
Snow Depth Not available.
UV 3 out of 12
Pollen 7.90 out of 12
Air Quality Not available.
Flu Activity Not available.
METAR KCRX 171955Z AUTO 33006KT 10SM FEW032 BKN038 25/16 A2998 RMK AO2

More Conditions Fewer Conditions

Pressure 29.98 in
Visibility 10.0 miles
Clouds Few 3200 ft
Mostly Cloudy 3800 ft
Heat Index 77 °F
Dew Point 64 °F
Humidity 67%
Rainfall 0.00 in
Snow Depth Not available.
UV 3 out of 12
Pollen 7.90 out of 12
Air Quality Not available.
Flu Activity Not available.
METAR KCRX 171955Z AUTO 33006KT 10SM FEW032 BKN038 25/16 A2998 RMK AO2

More Conditions Fewer Conditions

10-Day Weather Forecast

Almanac

Astronomy

Sep. 17, 2014 Rise Set
Actual Time 6:37 AM CDT 6:57 PM CDT
Civil Twilight 6:12 AM CDT 7:22 PM CDT
Nautical Twilight 5:42 AM CDT 7:52 PM CDT
Astronomical Twilight 5:12 AM CDT 8:22 PM CDT
Moon 12:46 AM CDT 2:58 PM CDT
Length of Visible Light 13h 10m
Length of Day
12h 19m
Tomorrow will be 2m 12s shorter.
Waning Crescent, 33% of the Moon is Illuminated
Today
Waning Crescent
Sep 24
New
Oct 1
First Quarter
Oct 8
Full
Oct 15
Last Quarter

Today's Extremes

State Highs State Lows

Community

WunderPhotos

Upload Photos

1,754,154 photos uploaded!

Nearby

Snow Depth

Station Depth Elevation
No new snow has been reported.

Earthquake Activity

City Distance Mag. Time & Date
No recent earthquake activity has been reported nearby.
Minimum magnitude displayed is 2.5.

Coastal Water Temperatures

Place Temperature
No Stations Reporting

Nearby Weather Stations